To NAV CANADA Home Page Login to a new session Search on AWWS site Disclaimer Vers la page française équivalente Tips FAQ What's new on the site To the Forecasts and Observations / NOTAM section To "File a Flight Plan" website Publications and other links Update of the User's profile FIC Telephone Numbers My Weather Data Folder Route Weather Data Regional Weather Data Local Weather Data To the Forecasts and Observations / NOTAM section
Request Generated 07/17/2018 at 13:14:13 UTC . Weather information available at that time is displayed.

METAR/TAF

If you find any discrepancies between the coded METAR/TAF and the plain language METAR/TAF please use the coded METAR/TAF. LWIS bulletins are not decoded in plain language.

TORONTO/LESTER B. PEARSON INTL/ON    

METAR CYYZ 171300Z 35009KT 15SM FEW072 23/14 A2988 RMK AC1 SLP118 DENSITY ALT 1 0FT=
METAR
LOCATION
CYYZ - TORONTO/LESTER B. PEARSON INTL/ON
DATE - TIME
17 JULY 2018 - 1300 UTC
WIND
350 TRUE @ 9  KNOTS
VISIBILITY
15 STAT.  MILES
RUNWAY VISUAL RANGE
WEATHER
CLOUDINESS
FEW CLOUDS (1/8 - 2/8) 7200  FT
TEMP / DEWPOINT
23 C / 14 C
ALTIMETER
29.88 IN HG
RECENT WEATHER
WIND SHEAR

METAR CYYZ 171200Z 31009KT 15SM FEW068 22/13 A2987 RMK AC2 SLP116 DENSITY ALT 1 0FT=
METAR
LOCATION
CYYZ - TORONTO/LESTER B. PEARSON INTL/ON
DATE - TIME
17 JULY 2018 - 1200 UTC
WIND
310 TRUE @ 9  KNOTS
VISIBILITY
15 STAT.  MILES
RUNWAY VISUAL RANGE
WEATHER
CLOUDINESS
FEW CLOUDS (1/8 - 2/8) 6800  FT
TEMP / DEWPOINT
22 C / 13 C
ALTIMETER
29.87 IN HG
RECENT WEATHER
WIND SHEAR

METAR CYYZ 171100Z 31008KT 15SM BKN065 21/13 A2986 RMK SC7 SLP111 DENSITY ALT 1 0FT=
METAR
LOCATION
CYYZ - TORONTO/LESTER B. PEARSON INTL/ON
DATE - TIME
17 JULY 2018 - 1100 UTC
WIND
310 TRUE @ 8  KNOTS
VISIBILITY
15 STAT.  MILES
RUNWAY VISUAL RANGE
WEATHER
CLOUDINESS
BROKEN CLOUDS (5/8 - 7/8) 6500  FT
TEMP / DEWPOINT
21 C / 13 C
ALTIMETER
29.86 IN HG
RECENT WEATHER
WIND SHEAR

TAF CYYZ 171138Z 1712/1818 31008KT P6SM BKN060 BECMG 1712/1714 33012G22KT FM171400 33012G22KT P6SM FEW060 FM180000 33010KT P6SM SKC BECMG 1812/1814 03012KT RMK NXT FCST BY 171500Z=
TAF
LOCATION

CYYZ - TORONTO/LESTER B. PEARSON INTL/ON
VALIDITY [UTC]
17 JUL - 1138 to
18 JUL - 1800
 
TIMES
[UTC]
WIND
[DEGREES TRUE]
VISIBILITY
[STAT. MILES]
WEATHER
CLOUDINESS
[FEET AGL]
 
17 JUL - 1200 to
17 JUL - 1400
310 @ 8 KNOTS
6+
NIL
6000 BROKEN
BECOMING
17 JUL - 1200 to
17 JUL - 1400
330 @ 12 KNOTS
GUSTS 22 KNOTS
 
 
 
 
17 JUL - 1400 to
18 JUL - 0000
330 @ 12 KNOTS
GUSTS 22 KNOTS
6+
NIL
6000 FEW
 
18 JUL - 0000 to
18 JUL - 1800
330 @ 10 KNOTS
6+
NIL
CLEAR SKY
BECOMING
18 JUL - 1200 to
18 JUL - 1400
30 @ 12 KNOTS
 
 
 
REMARKS
THE NEXT FORECAST WILL BE ISSUED BY 1500 UTC ON DAY 17


Your time UTC time
Weather data provided by Environment Canada and NAV CANADA